sensor_id;sensor_type;location;lat;lon;timestamp;pressure;altitude;pressure_sealevel;temperature;humidity
15308;BME280;7755;52.208;6.964;2023-11-21T00:03:04;100628.09;;;8.27;100.00
15308;BME280;7755;52.208;6.964;2023-11-21T00:07:09;100626.34;;;8.32;100.00
15308;BME280;7755;52.208;6.964;2023-11-21T00:11:21;100630.88;;;8.38;100.00
15308;BME280;7755;52.208;6.964;2023-11-21T00:15:26;100640.22;;;8.42;100.00
15308;BME280;7755;52.208;6.964;2023-11-21T00:19:35;100637.03;;;8.45;100.00
15308;BME280;7755;52.208;6.964;2023-11-21T00:23:40;100639.53;;;8.47;100.00
15308;BME280;7755;52.208;6.964;2023-11-21T00:27:44;100639.66;;;8.52;100.00
15308;BME280;7755;52.208;6.964;2023-11-21T00:31:49;100642.50;;;8.57;100.00
15308;BME280;7755;52.208;6.964;2023-11-21T00:35:57;100648.09;;;8.62;100.00
15308;BME280;7755;52.208;6.964;2023-11-21T00:40:03;100644.66;;;8.67;100.00
15308;BME280;7755;52.208;6.964;2023-11-21T00:44:09;100647.16;;;8.68;100.00
15308;BME280;7755;52.208;6.964;2023-11-21T00:48:15;100647.75;;;8.70;100.00
15308;BME280;7755;52.208;6.964;2023-11-21T00:52:23;100648.97;;;8.74;100.00
15308;BME280;7755;52.208;6.964;2023-11-21T00:56:28;100642.25;;;8.77;100.00
15308;BME280;7755;52.208;6.964;2023-11-21T01:00:35;100647.44;;;8.79;100.00
15308;BME280;7755;52.208;6.964;2023-11-21T01:04:41;100649.69;;;8.82;100.00
15308;BME280;7755;52.208;6.964;2023-11-21T01:08:49;100650.53;;;8.82;100.00
15308;BME280;7755;52.208;6.964;2023-11-21T01:12:54;100660.06;;;8.85;100.00
15308;BME280;7755;52.208;6.964;2023-11-21T01:16:59;100667.75;;;8.88;100.00
15308;BME280;7755;52.208;6.964;2023-11-21T01:21:06;100674.84;;;8.89;100.00
15308;BME280;7755;52.208;6.964;2023-11-21T01:25:14;100683.06;;;8.94;100.00
15308;BME280;7755;52.208;6.964;2023-11-21T01:29:25;100688.28;;;8.95;100.00
15308;BME280;7755;52.208;6.964;2023-11-21T01:33:30;100691.59;;;8.97;100.00
15308;BME280;7755;52.208;6.964;2023-11-21T01:37:38;100693.84;;;9.00;100.00
15308;BME280;7755;52.208;6.964;2023-11-21T01:41:46;100699.03;;;9.02;100.00
15308;BME280;7755;52.208;6.964;2023-11-21T01:45:51;100700.94;;;9.01;100.00
15308;BME280;7755;52.208;6.964;2023-11-21T01:49:55;100701.75;;;9.02;100.00
15308;BME280;7755;52.208;6.964;2023-11-21T01:54:00;100705.28;;;9.02;100.00
15308;BME280;7755;52.208;6.964;2023-11-21T01:58:20;100716.13;;;9.02;100.00
15308;BME280;7755;52.208;6.964;2023-11-21T02:02:25;100717.31;;;9.07;100.00
15308;BME280;7755;52.208;6.964;2023-11-21T02:06:31;100715.00;;;9.10;100.00
15308;BME280;7755;52.208;6.964;2023-11-21T02:10:36;100714.75;;;9.12;100.00
15308;BME280;7755;52.208;6.964;2023-11-21T02:14:45;100722.31;;;9.10;100.00
15308;BME280;7755;52.208;6.964;2023-11-21T02:18:51;100720.41;;;9.10;100.00
15308;BME280;7755;52.208;6.964;2023-11-21T02:23:00;100716.88;;;9.10;100.00
15308;BME280;7755;52.208;6.964;2023-11-21T02:27:05;100729.38;;;9.11;100.00
15308;BME280;7755;52.208;6.964;2023-11-21T02:31:10;100730.19;;;9.11;100.00
15308;BME280;7755;52.208;6.964;2023-11-21T02:35:15;100727.72;;;9.10;100.00
15308;BME280;7755;52.208;6.964;2023-11-21T02:39:22;100723.38;;;9.09;100.00
15308;BME280;7755;52.208;6.964;2023-11-21T02:43:27;100727.72;;;9.10;100.00
15308;BME280;7755;52.208;6.964;2023-11-21T02:47:33;100731.69;;;9.07;100.00
15308;BME280;7755;52.208;6.964;2023-11-21T02:51:38;100720.28;;;9.05;100.00
15308;BME280;7755;52.208;6.964;2023-11-21T02:55:45;100720.50;;;9.03;100.00
15308;BME280;7755;52.208;6.964;2023-11-21T02:59:50;100731.78;;;9.00;100.00
15308;BME280;7755;52.208;6.964;2023-11-21T03:03:55;100730.75;;;9.01;100.00
15308;BME280;7755;52.208;6.964;2023-11-21T03:08:00;100743.69;;;8.99;100.00
15308;BME280;7755;52.208;6.964;2023-11-21T03:12:09;100737.69;;;8.97;100.00
15308;BME280;7755;52.208;6.964;2023-11-21T03:16:15;100752.06;;;8.98;100.00
15308;BME280;7755;52.208;6.964;2023-11-21T03:20:21;100756.00;;;9.02;100.00
15308;BME280;7755;52.208;6.964;2023-11-21T03:24:27;100760.94;;;9.05;100.00
15308;BME280;7755;52.208;6.964;2023-11-21T03:28:34;100755.53;;;9.05;100.00
15308;BME280;7755;52.208;6.964;2023-11-21T03:32:40;100769.09;;;9.05;100.00
15308;BME280;7755;52.208;6.964;2023-11-21T03:36:44;100766.97;;;9.07;100.00
15308;BME280;7755;52.208;6.964;2023-11-21T03:40:50;100771.13;;;9.10;100.00
15308;BME280;7755;52.208;6.964;2023-11-21T03:44:58;100776.16;;;9.06;100.00
15308;BME280;7755;52.208;6.964;2023-11-21T03:49:03;100758.72;;;9.02;100.00
15308;BME280;7755;52.208;6.964;2023-11-21T03:53:09;100763.50;;;9.00;100.00
15308;BME280;7755;52.208;6.964;2023-11-21T03:57:13;100768.25;;;9.05;100.00
15308;BME280;7755;52.208;6.964;2023-11-21T04:01:22;100768.50;;;9.03;100.00
15308;BME280;7755;52.208;6.964;2023-11-21T04:05:27;100767.66;;;9.02;100.00
15308;BME280;7755;52.208;6.964;2023-11-21T04:09:32;100771.22;;;9.03;100.00
15308;BME280;7755;52.208;6.964;2023-11-21T04:13:38;100772.63;;;9.06;100.00
15308;BME280;7755;52.208;6.964;2023-11-21T04:17:47;100776.97;;;9.07;100.00
15308;BME280;7755;52.208;6.964;2023-11-21T04:21:52;100792.91;;;9.03;100.00
15308;BME280;7755;52.208;6.964;2023-11-21T04:25:57;100791.47;;;9.00;100.00
15308;BME280;7755;52.208;6.964;2023-11-21T04:30:05;100802.78;;;8.97;100.00
15308;BME280;7755;52.208;6.964;2023-11-21T04:34:14;100807.97;;;8.99;100.00
15308;BME280;7755;52.208;6.964;2023-11-21T04:38:19;100809.41;;;9.01;100.00
15308;BME280;7755;52.208;6.964;2023-11-21T04:42:24;100815.66;;;9.02;100.00
15308;BME280;7755;52.208;6.964;2023-11-21T04:46:29;100815.03;;;9.00;100.00
15308;BME280;7755;52.208;6.964;2023-11-21T04:50:36;100828.16;;;9.03;100.00
15308;BME280;7755;52.208;6.964;2023-11-21T04:54:41;100823.31;;;9.05;100.00
15308;BME280;7755;52.208;6.964;2023-11-21T04:58:46;100835.59;;;9.08;100.00
15308;BME280;7755;52.208;6.964;2023-11-21T05:02:51;100843.72;;;9.08;100.00
15308;BME280;7755;52.208;6.964;2023-11-21T05:06:59;100849.53;;;9.11;100.00
15308;BME280;7755;52.208;6.964;2023-11-21T05:11:05;100856.63;;;9.12;100.00
15308;BME280;7755;52.208;6.964;2023-11-21T05:15:14;100849.16;;;9.08;100.00
15308;BME280;7755;52.208;6.964;2023-11-21T05:19:20;100854.81;;;9.06;100.00
15308;BME280;7755;52.208;6.964;2023-11-21T05:23:27;100875.25;;;9.09;100.00
15308;BME280;7755;52.208;6.964;2023-11-21T05:27:32;100878.38;;;9.06;100.00
15308;BME280;7755;52.208;6.964;2023-11-21T05:31:37;100890.53;;;9.03;100.00
15308;BME280;7755;52.208;6.964;2023-11-21T05:35:42;100895.38;;;9.01;100.00
15308;BME280;7755;52.208;6.964;2023-11-21T05:39:52;100899.09;;;9.00;100.00
15308;BME280;7755;52.208;6.964;2023-11-21T05:44:02;100902.63;;;9.00;100.00
15308;BME280;7755;52.208;6.964;2023-11-21T05:48:11;100910.34;;;9.03;100.00
15308;BME280;7755;52.208;6.964;2023-11-21T05:52:22;100913.66;;;9.06;100.00
15308;BME280;7755;52.208;6.964;2023-11-21T05:56:40;100919.97;;;8.99;100.00
15308;BME280;7755;52.208;6.964;2023-11-21T06:00:44;100917.72;;;8.96;100.00
15308;BME280;7755;52.208;6.964;2023-11-21T06:04:49;100926.69;;;8.97;100.00
15308;BME280;7755;52.208;6.964;2023-11-21T06:08:54;100937.91;;;9.00;100.00
15308;BME280;7755;52.208;6.964;2023-11-21T06:13:02;100937.91;;;9.00;100.00
15308;BME280;7755;52.208;6.964;2023-11-21T06:17:09;100940.47;;;8.95;100.00
15308;BME280;7755;52.208;6.964;2023-11-21T06:21:15;100945.50;;;8.92;100.00
15308;BME280;7755;52.208;6.964;2023-11-21T06:25:21;100945.72;;;8.90;100.00
15308;BME280;7755;52.208;6.964;2023-11-21T06:29:29;100951.97;;;8.91;100.00
15308;BME280;7755;52.208;6.964;2023-11-21T06:33:33;100959.66;;;8.94;100.00
15308;BME280;7755;52.208;6.964;2023-11-21T06:37:39;100966.97;;;8.93;100.00
15308;BME280;7755;52.208;6.964;2023-11-21T06:41:49;100983.22;;;8.93;100.00
15308;BME280;7755;52.208;6.964;2023-11-21T06:45:57;100989.72;;;8.92;100.00
15308;BME280;7755;52.208;6.964;2023-11-21T06:50:02;100991.00;;;8.90;100.00
15308;BME280;7755;52.208;6.964;2023-11-21T06:54:08;100994.97;;;8.87;100.00
15308;BME280;7755;52.208;6.964;2023-11-21T06:58:13;100988.28;;;8.90;100.00
15308;BME280;7755;52.208;6.964;2023-11-21T07:02:21;100999.72;;;8.92;100.00
15308;BME280;7755;52.208;6.964;2023-11-21T07:06:26;101008.69;;;8.92;100.00
15308;BME280;7755;52.208;6.964;2023-11-21T07:10:32;101012.22;;;8.93;100.00
15308;BME280;7755;52.208;6.964;2023-11-21T07:14:39;101014.34;;;8.91;100.00
15308;BME280;7755;52.208;6.964;2023-11-21T07:18:49;101025.78;;;8.93;100.00
15308;BME280;7755;52.208;6.964;2023-11-21T07:22:54;101030.34;;;8.99;100.00
15308;BME280;7755;52.208;6.964;2023-11-21T07:26:59;101039.09;;;9.01;100.00
15308;BME280;7755;52.208;6.964;2023-11-21T07:31:06;101040.28;;;9.05;100.00
15308;BME280;7755;52.208;6.964;2023-11-21T07:35:15;101055.09;;;9.09;100.00
15308;BME280;7755;52.208;6.964;2023-11-21T07:39:20;101060.28;;;9.11;100.00
15308;BME280;7755;52.208;6.964;2023-11-21T07:43:25;101068.78;;;9.14;100.00
15308;BME280;7755;52.208;6.964;2023-11-21T07:47:37;101082.16;;;9.16;100.00
15308;BME280;7755;52.208;6.964;2023-11-21T07:51:45;101093.38;;;9.19;100.00
15308;BME280;7755;52.208;6.964;2023-11-21T07:55:50;101101.09;;;9.22;100.00
15308;BME280;7755;52.208;6.964;2023-11-21T08:00:16;101105.22;;;9.25;100.00
15308;BME280;7755;52.208;6.964;2023-11-21T08:04:36;101113.75;;;9.28;100.00
15308;BME280;7755;52.208;6.964;2023-11-21T08:08:43;101113.91;;;9.34;100.00
15308;BME280;7755;52.208;6.964;2023-11-21T08:12:49;101120.16;;;9.34;100.00
15308;BME280;7755;52.208;6.964;2023-11-21T08:16:55;101119.13;;;9.35;100.00
15308;BME280;7755;52.208;6.964;2023-11-21T08:21:01;101133.31;;;9.37;100.00
15308;BME280;7755;52.208;6.964;2023-11-21T08:25:10;101133.69;;;9.41;100.00
15308;BME280;7755;52.208;6.964;2023-11-21T08:29:15;101145.53;;;9.46;100.00
15308;BME280;7755;52.208;6.964;2023-11-21T08:33:20;101146.75;;;9.50;100.00
15308;BME280;7755;52.208;6.964;2023-11-21T08:37:25;101144.66;;;9.52;100.00
15308;BME280;7755;52.208;6.964;2023-11-21T08:41:35;101158.63;;;9.56;100.00
15308;BME280;7755;52.208;6.964;2023-11-21T08:45:39;101162.53;;;9.60;100.00
15308;BME280;7755;52.208;6.964;2023-11-21T08:49:45;101163.97;;;9.63;100.00
15308;BME280;7755;52.208;6.964;2023-11-21T08:53:50;101163.16;;;9.62;100.00
15308;BME280;7755;52.208;6.964;2023-11-21T08:57:58;101168.94;;;9.66;100.00
15308;BME280;7755;52.208;6.964;2023-11-21T09:02:03;101176.44;;;9.70;100.00
15308;BME280;7755;52.208;6.964;2023-11-21T09:06:09;101183.34;;;9.66;100.00
15308;BME280;7755;52.208;6.964;2023-11-21T09:10:14;101196.56;;;9.63;100.00
15308;BME280;7755;52.208;6.964;2023-11-21T09:14:21;101196.75;;;9.61;100.00
15308;BME280;7755;52.208;6.964;2023-11-21T09:18:26;101213.44;;;9.65;100.00
15308;BME280;7755;52.208;6.964;2023-11-21T09:22:33;101219.06;;;9.70;100.00
15308;BME280;7755;52.208;6.964;2023-11-21T09:26:38;101211.06;;;9.75;100.00
15308;BME280;7755;52.208;6.964;2023-11-21T09:30:48;101220.19;;;9.80;100.00
15308;BME280;7755;52.208;6.964;2023-11-21T09:34:53;101231.81;;;9.88;100.00
15308;BME280;7755;52.208;6.964;2023-11-21T09:39:01;101230.09;;;9.93;100.00
15308;BME280;7755;52.208;6.964;2023-11-21T09:43:14;101230.72;;;9.95;100.00
15308;BME280;7755;52.208;6.964;2023-11-21T09:47:23;101241.97;;;9.99;100.00
15308;BME280;7755;52.208;6.964;2023-11-21T09:51:29;101248.63;;;10.03;100.00
15308;BME280;7755;52.208;6.964;2023-11-21T09:55:42;101253.16;;;10.09;100.00
15308;BME280;7755;52.208;6.964;2023-11-21T09:59:51;101265.31;;;10.06;100.00
15308;BME280;7755;52.208;6.964;2023-11-21T10:04:00;101262.59;;;10.06;100.00
15308;BME280;7755;52.208;6.964;2023-11-21T10:08:07;101254.38;;;10.13;100.00
15308;BME280;7755;52.208;6.964;2023-11-21T10:12:14;101258.91;;;10.19;100.00
15308;BME280;7755;52.208;6.964;2023-11-21T10:16:22;101271.63;;;10.25;100.00
15308;BME280;7755;52.208;6.964;2023-11-21T10:20:33;101281.63;;;10.31;100.00
15308;BME280;7755;52.208;6.964;2023-11-21T10:24:40;101286.59;;;10.34;100.00
15308;BME280;7755;52.208;6.964;2023-11-21T10:28:57;101292.19;;;10.39;100.00
15308;BME280;7755;52.208;6.964;2023-11-21T10:33:04;101296.72;;;10.46;100.00
15308;BME280;7755;52.208;6.964;2023-11-21T10:37:15;101288.72;;;10.51;100.00
15308;BME280;7755;52.208;6.964;2023-11-21T10:41:22;101291.59;;;10.56;100.00
15308;BME280;7755;52.208;6.964;2023-11-21T10:45:28;101306.00;;;10.56;100.00
15308;BME280;7755;52.208;6.964;2023-11-21T10:49:32;101305.19;;;10.56;100.00
15308;BME280;7755;52.208;6.964;2023-11-21T10:53:43;101304.97;;;10.57;100.00
15308;BME280;7755;52.208;6.964;2023-11-21T10:57:53;101315.78;;;10.64;100.00
15308;BME280;7755;52.208;6.964;2023-11-21T11:01:58;101308.44;;;10.64;100.00
15308;BME280;7755;52.208;6.964;2023-11-21T11:06:07;101314.72;;;10.65;100.00
15308;BME280;7755;52.208;6.964;2023-11-21T11:10:16;101319.94;;;10.66;100.00
15308;BME280;7755;52.208;6.964;2023-11-21T11:14:22;101325.53;;;10.72;100.00
15308;BME280;7755;52.208;6.964;2023-11-21T11:18:41;101336.16;;;10.73;100.00
15308;BME280;7755;52.208;6.964;2023-11-21T11:22:51;101340.78;;;10.73;100.00
15308;BME280;7755;52.208;6.964;2023-11-21T11:27:11;101331.41;;;10.69;100.00
15308;BME280;7755;52.208;6.964;2023-11-21T11:31:31;101334.81;;;10.64;100.00
15308;BME280;7755;52.208;6.964;2023-11-21T11:35:46;101333.34;;;10.61;100.00
15308;BME280;7755;52.208;6.964;2023-11-21T11:39:56;101333.59;;;10.60;100.00
15308;BME280;7755;52.208;6.964;2023-11-21T11:48:48;101351.56;;;10.61;100.00
15308;BME280;7755;52.208;6.964;2023-11-21T11:52:53;101363.50;;;10.60;100.00
15308;BME280;7755;52.208;6.964;2023-11-21T11:56:59;101364.63;;;10.52;100.00
15308;BME280;7755;52.208;6.964;2023-11-21T12:01:10;101378.88;;;10.48;100.00
15308;BME280;7755;52.208;6.964;2023-11-21T12:05:17;101387.03;;;10.48;100.00
15308;BME280;7755;52.208;6.964;2023-11-21T12:09:23;101389.38;;;10.44;100.00
15308;BME280;7755;52.208;6.964;2023-11-21T12:13:28;101405.13;;;10.35;100.00
15308;BME280;7755;52.208;6.964;2023-11-21T12:17:36;101416.50;;;10.26;100.00
15308;BME280;7755;52.208;6.964;2023-11-21T12:21:42;101418.84;;;10.16;100.00
15308;BME280;7755;52.208;6.964;2023-11-21T12:25:46;101418.88;;;10.09;100.00
15308;BME280;7755;52.208;6.964;2023-11-21T12:29:54;101420.75;;;10.08;100.00
15308;BME280;7755;52.208;6.964;2023-11-21T12:34:03;101433.75;;;10.06;100.00
15308;BME280;7755;52.208;6.964;2023-11-21T12:38:10;101432.47;;;10.09;100.00
15308;BME280;7755;52.208;6.964;2023-11-21T12:42:16;101432.09;;;10.05;100.00
15308;BME280;7755;52.208;6.964;2023-11-21T12:46:32;101444.22;;;10.03;100.00
15308;BME280;7755;52.208;6.964;2023-11-21T12:50:46;101449.47;;;9.98;100.00
15308;BME280;7755;52.208;6.964;2023-11-21T12:54:55;101446.75;;;9.98;100.00
15308;BME280;7755;52.208;6.964;2023-11-21T12:59:00;101456.13;;;10.02;100.00
15308;BME280;7755;52.208;6.964;2023-11-21T13:03:09;101463.44;;;10.01;100.00
15308;BME280;7755;52.208;6.964;2023-11-21T13:07:17;101467.00;;;10.02;100.00
15308;BME280;7755;52.208;6.964;2023-11-21T13:11:25;101476.63;;;10.04;100.00
15308;BME280;7755;52.208;6.964;2023-11-21T13:15:33;101479.97;;;10.00;100.00
15308;BME280;7755;52.208;6.964;2023-11-21T13:19:38;101482.16;;;9.84;100.00
15308;BME280;7755;52.208;6.964;2023-11-21T13:23:46;101483.66;;;9.74;100.00
15308;BME280;7755;52.208;6.964;2023-11-21T13:27:55;101491.81;;;9.67;100.00
15308;BME280;7755;52.208;6.964;2023-11-21T13:32:00;101497.50;;;9.59;100.00
15308;BME280;7755;52.208;6.964;2023-11-21T13:36:08;101504.63;;;9.53;100.00
15308;BME280;7755;52.208;6.964;2023-11-21T13:40:19;101502.34;;;9.50;100.00
15308;BME280;7755;52.208;6.964;2023-11-21T13:44:28;101506.50;;;9.46;100.00
15308;BME280;7755;52.208;6.964;2023-11-21T13:48:40;101509.88;;;9.42;100.00
15308;BME280;7755;52.208;6.964;2023-11-21T13:52:53;101519.72;;;9.36;100.00
15308;BME280;7755;52.208;6.964;2023-11-21T13:57:02;101523.66;;;9.34;100.00
15308;BME280;7755;52.208;6.964;2023-11-21T14:01:08;101539.78;;;9.28;100.00
15308;BME280;7755;52.208;6.964;2023-11-21T14:05:27;101541.00;;;9.26;100.00
15308;BME280;7755;52.208;6.964;2023-11-21T14:09:34;101556.25;;;9.27;100.00
15308;BME280;7755;52.208;6.964;2023-11-21T14:13:49;101570.66;;;9.21;100.00
15308;BME280;7755;52.208;6.964;2023-11-21T14:17:57;101575.06;;;9.22;100.00
15308;BME280;7755;52.208;6.964;2023-11-21T14:22:05;101582.16;;;9.23;100.00
15308;BME280;7755;52.208;6.964;2023-11-21T14:26:12;101595.28;;;9.19;100.00
15308;BME280;7755;52.208;6.964;2023-11-21T14:30:20;101589.47;;;9.16;100.00
15308;BME280;7755;52.208;6.964;2023-11-21T14:34:27;101599.03;;;9.12;100.00
15308;BME280;7755;52.208;6.964;2023-11-21T14:38:32;101612.22;;;9.08;100.00
15308;BME280;7755;52.208;6.964;2023-11-21T14:42:37;101619.28;;;9.02;100.00
15308;BME280;7755;52.208;6.964;2023-11-21T14:46:45;101614.91;;;8.95;100.00
15308;BME280;7755;52.208;6.964;2023-11-21T14:50:53;101618.22;;;8.90;100.00
15308;BME280;7755;52.208;6.964;2023-11-21T14:55:11;101619.06;;;8.84;100.00
15308;BME280;7755;52.208;6.964;2023-11-21T14:59:28;101627.19;;;8.84;100.00
15308;BME280;7755;52.208;6.964;2023-11-21T15:03:36;101638.03;;;8.78;100.00
15308;BME280;7755;52.208;6.964;2023-11-21T15:07:56;101646.59;;;8.74;100.00
15308;BME280;7755;52.208;6.964;2023-11-21T15:12:15;101662.03;;;8.74;100.00
15308;BME280;7755;52.208;6.964;2023-11-21T15:16:43;101674.09;;;8.71;100.00
15308;BME280;7755;52.208;6.964;2023-11-21T15:20:55;101681.81;;;8.68;100.00
15308;BME280;7755;52.208;6.964;2023-11-21T15:25:23;101695.53;;;8.66;100.00
15308;BME280;7755;52.208;6.964;2023-11-21T15:29:27;101686.78;;;8.64;100.00
15308;BME280;7755;52.208;6.964;2023-11-21T15:33:32;101703.25;;;8.63;100.00
15308;BME280;7755;52.208;6.964;2023-11-21T15:37:40;101710.56;;;8.62;100.00
15308;BME280;7755;52.208;6.964;2023-11-21T15:41:45;101727.88;;;8.61;100.00
15308;BME280;7755;52.208;6.964;2023-11-21T15:45:49;101735.78;;;8.63;100.00
15308;BME280;7755;52.208;6.964;2023-11-21T15:49:57;101740.19;;;8.64;100.00
15308;BME280;7755;52.208;6.964;2023-11-21T15:54:05;101749.75;;;8.60;100.00
15308;BME280;7755;52.208;6.964;2023-11-21T15:58:10;101758.91;;;8.59;100.00
15308;BME280;7755;52.208;6.964;2023-11-21T16:02:14;101758.50;;;8.55;100.00
15308;BME280;7755;52.208;6.964;2023-11-21T16:06:20;101765.34;;;8.51;100.00
15308;BME280;7755;52.208;6.964;2023-11-21T16:10:27;101769.69;;;8.45;100.00
15308;BME280;7755;52.208;6.964;2023-11-21T16:14:33;101772.59;;;8.44;100.00
15308;BME280;7755;52.208;6.964;2023-11-21T16:18:43;101778.22;;;8.42;100.00
15308;BME280;7755;52.208;6.964;2023-11-21T16:22:48;101776.31;;;8.36;100.00
15308;BME280;7755;52.208;6.964;2023-11-21T16:26:56;101786.66;;;8.33;100.00
15308;BME280;7755;52.208;6.964;2023-11-21T16:31:01;101791.03;;;8.27;100.00
15308;BME280;7755;52.208;6.964;2023-11-21T16:35:06;101800.34;;;8.18;100.00
15308;BME280;7755;52.208;6.964;2023-11-21T16:39:13;101813.44;;;8.14;100.00
15308;BME280;7755;52.208;6.964;2023-11-21T16:43:23;101837.16;;;8.12;100.00
15308;BME280;7755;52.208;6.964;2023-11-21T16:47:28;101840.28;;;8.09;100.00
15308;BME280;7755;52.208;6.964;2023-11-21T16:51:35;101844.66;;;8.10;100.00
15308;BME280;7755;52.208;6.964;2023-11-21T16:55:40;101857.84;;;8.13;100.00
15308;BME280;7755;52.208;6.964;2023-11-21T16:59:50;101857.84;;;8.13;100.00
15308;BME280;7755;52.208;6.964;2023-11-21T17:03:56;101869.25;;;8.09;100.00
15308;BME280;7755;52.208;6.964;2023-11-21T17:08:03;101878.41;;;8.08;100.00
15308;BME280;7755;52.208;6.964;2023-11-21T17:12:10;101873.81;;;8.08;100.00
15308;BME280;7755;52.208;6.964;2023-11-21T17:16:18;101894.25;;;8.11;100.00
15308;BME280;7755;52.208;6.964;2023-11-21T17:20:24;101902.31;;;8.04;100.00
15308;BME280;7755;52.208;6.964;2023-11-21T17:24:29;101905.22;;;8.03;100.00
15308;BME280;7755;52.208;6.964;2023-11-21T17:28:35;101898.13;;;8.02;100.00
15308;BME280;7755;52.208;6.964;2023-11-21T17:32:43;101916.25;;;8.01;100.00
15308;BME280;7755;52.208;6.964;2023-11-21T17:36:49;101931.84;;;7.99;100.00
15308;BME280;7755;52.208;6.964;2023-11-21T17:40:54;101936.63;;;7.97;100.00
15308;BME280;7755;52.208;6.964;2023-11-21T17:44:59;101945.59;;;7.98;100.00
15308;BME280;7755;52.208;6.964;2023-11-21T17:49:07;101939.13;;;7.99;100.00
15308;BME280;7755;52.208;6.964;2023-11-21T17:53:13;101953.34;;;8.01;100.00
15308;BME280;7755;52.208;6.964;2023-11-21T17:57:18;101973.34;;;8.00;100.00
15308;BME280;7755;52.208;6.964;2023-11-21T18:01:24;101969.13;;;7.97;100.00
15308;BME280;7755;52.208;6.964;2023-11-21T18:05:39;101978.59;;;7.86;100.00
15308;BME280;7755;52.208;6.964;2023-11-21T18:09:44;101997.47;;;7.80;100.00
15308;BME280;7755;52.208;6.964;2023-11-21T18:13:55;101992.16;;;7.72;100.00
15308;BME280;7755;52.208;6.964;2023-11-21T18:18:00;102008.16;;;7.66;100.00
15308;BME280;7755;52.208;6.964;2023-11-21T18:22:08;102006.94;;;7.54;100.00
15308;BME280;7755;52.208;6.964;2023-11-21T18:26:16;102010.41;;;7.48;100.00
15308;BME280;7755;52.208;6.964;2023-11-21T18:30:21;102004.25;;;7.39;100.00
15308;BME280;7755;52.208;6.964;2023-11-21T18:34:26;102022.91;;;7.34;100.00
15308;BME280;7755;52.208;6.964;2023-11-21T18:38:34;102023.56;;;7.22;100.00
15308;BME280;7755;52.208;6.964;2023-11-21T18:42:39;102031.56;;;7.15;100.00
15308;BME280;7755;52.208;6.964;2023-11-21T18:46:47;102034.81;;;7.10;100.00
15308;BME280;7755;52.208;6.964;2023-11-21T18:50:52;102036.44;;;7.05;100.00
15308;BME280;7755;52.208;6.964;2023-11-21T18:54:59;102038.34;;;6.96;100.00
15308;BME280;7755;52.208;6.964;2023-11-21T18:59:05;102041.13;;;6.88;100.00
15308;BME280;7755;52.208;6.964;2023-11-21T19:03:12;102039.16;;;6.82;100.00
15308;BME280;7755;52.208;6.964;2023-11-21T19:07:21;102042.09;;;6.95;100.00
15308;BME280;7755;52.208;6.964;2023-11-21T19:11:32;102051.25;;;7.24;100.00
15308;BME280;7755;52.208;6.964;2023-11-21T19:15:39;102044.66;;;7.41;100.00
15308;BME280;7755;52.208;6.964;2023-11-21T19:19:47;102044.00;;;7.39;100.00
15308;BME280;7755;52.208;6.964;2023-11-21T19:23:53;102050.69;;;7.14;100.00
15308;BME280;7755;52.208;6.964;2023-11-21T19:28:20;102071.38;;;6.92;100.00
15308;BME280;7755;52.208;6.964;2023-11-21T19:32:25;102073.34;;;6.75;100.00
15308;BME280;7755;52.208;6.964;2023-11-21T19:36:31;102084.41;;;6.65;100.00
15308;BME280;7755;52.208;6.964;2023-11-21T19:40:37;102084.84;;;6.54;100.00
15308;BME280;7755;52.208;6.964;2023-11-21T19:44:44;102105.16;;;6.42;100.00
15308;BME280;7755;52.208;6.964;2023-11-21T19:48:51;102097.13;;;6.34;100.00
15308;BME280;7755;52.208;6.964;2023-11-21T19:52:57;102108.81;;;6.26;100.00
15308;BME280;7755;52.208;6.964;2023-11-21T19:57:03;102115.44;;;6.15;100.00
15308;BME280;7755;52.208;6.964;2023-11-21T20:01:16;102122.75;;;6.07;100.00
15308;BME280;7755;52.208;6.964;2023-11-21T20:05:23;102116.00;;;6.02;100.00
15308;BME280;7755;52.208;6.964;2023-11-21T20:09:28;102130.25;;;5.96;100.00
15308;BME280;7755;52.208;6.964;2023-11-21T20:13:33;102134.28;;;5.92;100.00
15308;BME280;7755;52.208;6.964;2023-11-21T20:17:42;102130.41;;;5.87;100.00
15308;BME280;7755;52.208;6.964;2023-11-21T20:21:48;102135.66;;;5.80;100.00
15308;BME280;7755;52.208;6.964;2023-11-21T20:25:56;102146.97;;;5.75;100.00
15308;BME280;7755;52.208;6.964;2023-11-21T20:30:04;102159.13;;;5.71;100.00
15308;BME280;7755;52.208;6.964;2023-11-21T20:34:12;102161.31;;;5.68;100.00
15308;BME280;7755;52.208;6.964;2023-11-21T20:38:17;102169.78;;;5.65;100.00
15308;BME280;7755;52.208;6.964;2023-11-21T20:42:22;102160.50;;;5.59;100.00
15308;BME280;7755;52.208;6.964;2023-11-21T20:46:28;102153.75;;;5.55;100.00
15308;BME280;7755;52.208;6.964;2023-11-21T20:50:35;102160.16;;;5.54;100.00
15308;BME280;7755;52.208;6.964;2023-11-21T20:54:53;102162.56;;;5.49;100.00
15308;BME280;7755;52.208;6.964;2023-11-21T20:59:05;102155.81;;;5.45;100.00
15308;BME280;7755;52.208;6.964;2023-11-21T21:03:21;102167.94;;;5.41;100.00
15308;BME280;7755;52.208;6.964;2023-11-21T21:07:28;102165.78;;;5.36;100.00
15308;BME280;7755;52.208;6.964;2023-11-21T21:11:34;102169.63;;;5.34;100.00
15308;BME280;7755;52.208;6.964;2023-11-21T21:15:40;102169.31;;;5.29;100.00
15308;BME280;7755;52.208;6.964;2023-11-21T21:19:50;102176.22;;;5.23;100.00
15308;BME280;7755;52.208;6.964;2023-11-21T21:23:58;102187.34;;;5.20;100.00
15308;BME280;7755;52.208;6.964;2023-11-21T21:28:20;102195.97;;;5.15;100.00
15308;BME280;7755;52.208;6.964;2023-11-21T21:32:25;102198.47;;;5.09;100.00
15308;BME280;7755;52.208;6.964;2023-11-21T21:36:30;102217.16;;;5.02;100.00
15308;BME280;7755;52.208;6.964;2023-11-21T21:40:38;102226.59;;;4.98;100.00
15308;BME280;7755;52.208;6.964;2023-11-21T21:44:52;102218.16;;;4.93;100.00
15308;BME280;7755;52.208;6.964;2023-11-21T21:48:59;102243.41;;;4.92;100.00
15308;BME280;7755;52.208;6.964;2023-11-21T21:53:13;102239.88;;;4.91;100.00